sensor_id;sensor_type;location;lat;lon;timestamp;temperature;humidity
3923;DHT22;1976;51.694;6.256;2022-08-03T00:00:05;21.90;99.90
3923;DHT22;1976;51.694;6.256;2022-08-03T00:02:30;21.90;99.90
3923;DHT22;1976;51.694;6.256;2022-08-03T00:04:56;21.90;99.90
3923;DHT22;1976;51.694;6.256;2022-08-03T00:07:22;21.90;99.90
3923;DHT22;1976;51.694;6.256;2022-08-03T00:09:47;21.90;99.90
3923;DHT22;1976;51.694;6.256;2022-08-03T00:12:13;21.80;99.90
3923;DHT22;1976;51.694;6.256;2022-08-03T00:14:39;21.90;99.90
3923;DHT22;1976;51.694;6.256;2022-08-03T00:17:05;21.80;99.90
3923;DHT22;1976;51.694;6.256;2022-08-03T00:19:30;21.80;99.90
3923;DHT22;1976;51.694;6.256;2022-08-03T00:21:56;21.80;99.90
3923;DHT22;1976;51.694;6.256;2022-08-03T00:24:21;21.70;99.90
3923;DHT22;1976;51.694;6.256;2022-08-03T00:26:47;21.70;99.90
3923;DHT22;1976;51.694;6.256;2022-08-03T00:29:13;21.70;99.90
3923;DHT22;1976;51.694;6.256;2022-08-03T00:31:38;21.70;99.90
3923;DHT22;1976;51.694;6.256;2022-08-03T00:34:05;21.60;99.90
3923;DHT22;1976;51.694;6.256;2022-08-03T00:36:30;21.50;99.90
3923;DHT22;1976;51.694;6.256;2022-08-03T00:38:56;21.50;99.90
3923;DHT22;1976;51.694;6.256;2022-08-03T00:41:22;21.40;99.90
3923;DHT22;1976;51.694;6.256;2022-08-03T00:43:47;21.40;99.90
3923;DHT22;1976;51.694;6.256;2022-08-03T00:46:13;21.30;99.90
3923;DHT22;1976;51.694;6.256;2022-08-03T00:48:39;21.30;99.90
3923;DHT22;1976;51.694;6.256;2022-08-03T00:51:05;21.30;99.90
3923;DHT22;1976;51.694;6.256;2022-08-03T00:53:31;21.20;99.90
3923;DHT22;1976;51.694;6.256;2022-08-03T00:55:57;21.10;99.90
3923;DHT22;1976;51.694;6.256;2022-08-03T00:58:23;21.10;99.90
3923;DHT22;1976;51.694;6.256;2022-08-03T01:00:49;20.90;99.90
3923;DHT22;1976;51.694;6.256;2022-08-03T01:03:15;20.80;99.90
3923;DHT22;1976;51.694;6.256;2022-08-03T01:08:45;20.60;99.90
3923;DHT22;1976;51.694;6.256;2022-08-03T01:14:17;20.40;99.90
3923;DHT22;1976;51.694;6.256;2022-08-03T01:27:30;20.30;99.90
3923;DHT22;1976;51.694;6.256;2022-08-03T01:30:08;20.30;99.90
3923;DHT22;1976;51.694;6.256;2022-08-03T01:32:54;20.30;99.90
3923;DHT22;1976;51.694;6.256;2022-08-03T01:35:32;20.30;99.90
3923;DHT22;1976;51.694;6.256;2022-08-03T01:38:06;20.20;99.90
3923;DHT22;1976;51.694;6.256;2022-08-03T01:40:35;20.10;99.90
3923;DHT22;1976;51.694;6.256;2022-08-03T01:43:02;20.10;99.90
3923;DHT22;1976;51.694;6.256;2022-08-03T01:45:29;20.00;99.90
3923;DHT22;1976;51.694;6.256;2022-08-03T01:47:56;20.10;99.90
3923;DHT22;1976;51.694;6.256;2022-08-03T01:52:53;19.90;99.90
3923;DHT22;1976;51.694;6.256;2022-08-03T01:55:21;19.90;99.90
3923;DHT22;1976;51.694;6.256;2022-08-03T01:57:54;19.90;99.90
3923;DHT22;1976;51.694;6.256;2022-08-03T02:00:22;19.90;99.90
3923;DHT22;1976;51.694;6.256;2022-08-03T02:02:50;19.90;99.90
3923;DHT22;1976;51.694;6.256;2022-08-03T02:05:17;19.90;99.90
3923;DHT22;1976;51.694;6.256;2022-08-03T02:07:45;19.90;99.90
3923;DHT22;1976;51.694;6.256;2022-08-03T02:10:14;20.00;99.90
3923;DHT22;1976;51.694;6.256;2022-08-03T02:12:43;19.90;99.90
3923;DHT22;1976;51.694;6.256;2022-08-03T02:17:37;19.90;99.90
3923;DHT22;1976;51.694;6.256;2022-08-03T02:20:04;19.90;99.90
3923;DHT22;1976;51.694;6.256;2022-08-03T02:22:32;19.90;99.90
3923;DHT22;1976;51.694;6.256;2022-08-03T02:24:58;19.80;99.90
3923;DHT22;1976;51.694;6.256;2022-08-03T02:27:25;19.70;99.90
3923;DHT22;1976;51.694;6.256;2022-08-03T02:30:17;19.60;99.90
3923;DHT22;1976;51.694;6.256;2022-08-03T02:32:50;19.60;99.90
3923;DHT22;1976;51.694;6.256;2022-08-03T02:35:19;19.60;99.90
3923;DHT22;1976;51.694;6.256;2022-08-03T02:37:51;19.70;99.90
3923;DHT22;1976;51.694;6.256;2022-08-03T02:40:18;19.70;99.90
3923;DHT22;1976;51.694;6.256;2022-08-03T02:42:46;19.70;99.90
3923;DHT22;1976;51.694;6.256;2022-08-03T02:45:13;19.70;99.90
3923;DHT22;1976;51.694;6.256;2022-08-03T02:47:41;19.70;99.90
3923;DHT22;1976;51.694;6.256;2022-08-03T02:50:11;19.70;99.90
3923;DHT22;1976;51.694;6.256;2022-08-03T02:52:39;19.70;99.90
3923;DHT22;1976;51.694;6.256;2022-08-03T02:55:07;19.70;99.90
3923;DHT22;1976;51.694;6.256;2022-08-03T02:57:35;19.70;99.90
3923;DHT22;1976;51.694;6.256;2022-08-03T03:00:03;19.70;99.90
3923;DHT22;1976;51.694;6.256;2022-08-03T03:04:56;19.70;99.90
3923;DHT22;1976;51.694;6.256;2022-08-03T03:07:22;19.60;99.90
3923;DHT22;1976;51.694;6.256;2022-08-03T03:09:48;19.60;99.90
3923;DHT22;1976;51.694;6.256;2022-08-03T03:12:15;19.50;99.90
3923;DHT22;1976;51.694;6.256;2022-08-03T03:14:41;19.40;99.90
3923;DHT22;1976;51.694;6.256;2022-08-03T03:17:08;19.40;99.90
3923;DHT22;1976;51.694;6.256;2022-08-03T03:19:38;19.40;99.90
3923;DHT22;1976;51.694;6.256;2022-08-03T03:22:04;19.30;99.90
3923;DHT22;1976;51.694;6.256;2022-08-03T03:24:32;19.20;99.90
3923;DHT22;1976;51.694;6.256;2022-08-03T03:26:59;19.20;99.90
3923;DHT22;1976;51.694;6.256;2022-08-03T03:29:25;19.10;99.90
3923;DHT22;1976;51.694;6.256;2022-08-03T03:31:51;19.00;99.90
3923;DHT22;1976;51.694;6.256;2022-08-03T03:34:18;18.90;99.90
3923;DHT22;1976;51.694;6.256;2022-08-03T03:36:44;18.90;99.90
3923;DHT22;1976;51.694;6.256;2022-08-03T03:39:10;18.80;99.90
3923;DHT22;1976;51.694;6.256;2022-08-03T03:41:36;18.80;99.90
3923;DHT22;1976;51.694;6.256;2022-08-03T03:44:02;18.70;99.90
3923;DHT22;1976;51.694;6.256;2022-08-03T03:46:28;18.80;99.90
3923;DHT22;1976;51.694;6.256;2022-08-03T03:48:54;18.70;99.90
3923;DHT22;1976;51.694;6.256;2022-08-03T03:51:20;18.70;99.90
3923;DHT22;1976;51.694;6.256;2022-08-03T03:54:03;18.70;99.90
3923;DHT22;1976;51.694;6.256;2022-08-03T03:56:31;18.70;99.90
3923;DHT22;1976;51.694;6.256;2022-08-03T03:58:57;18.70;99.90
3923;DHT22;1976;51.694;6.256;2022-08-03T04:01:22;18.70;99.90
3923;DHT22;1976;51.694;6.256;2022-08-03T04:03:48;18.70;99.90
3923;DHT22;1976;51.694;6.256;2022-08-03T04:06:14;18.80;99.90
3923;DHT22;1976;51.694;6.256;2022-08-03T04:08:59;18.70;99.90
3923;DHT22;1976;51.694;6.256;2022-08-03T04:11:51;18.70;99.90
3923;DHT22;1976;51.694;6.256;2022-08-03T04:14:29;18.70;99.90
3923;DHT22;1976;51.694;6.256;2022-08-03T04:16:57;18.70;99.90
3923;DHT22;1976;51.694;6.256;2022-08-03T04:19:42;18.80;99.90
3923;DHT22;1976;51.694;6.256;2022-08-03T04:22:11;18.80;99.90
3923;DHT22;1976;51.694;6.256;2022-08-03T04:24:48;18.80;99.90
3923;DHT22;1976;51.694;6.256;2022-08-03T04:29:47;18.80;99.90
3923;DHT22;1976;51.694;6.256;2022-08-03T04:32:14;18.80;99.90
3923;DHT22;1976;51.694;6.256;2022-08-03T04:34:40;18.80;99.90
3923;DHT22;1976;51.694;6.256;2022-08-03T04:37:11;18.90;99.90
3923;DHT22;1976;51.694;6.256;2022-08-03T04:39:41;18.90;99.90
3923;DHT22;1976;51.694;6.256;2022-08-03T04:42:08;18.80;99.90
3923;DHT22;1976;51.694;6.256;2022-08-03T04:44:39;18.90;99.90
3923;DHT22;1976;51.694;6.256;2022-08-03T04:47:05;18.80;99.90
3923;DHT22;1976;51.694;6.256;2022-08-03T04:49:31;18.80;99.90
3923;DHT22;1976;51.694;6.256;2022-08-03T04:51:57;18.90;99.90
3923;DHT22;1976;51.694;6.256;2022-08-03T04:54:23;18.90;99.90
3923;DHT22;1976;51.694;6.256;2022-08-03T04:56:49;19.00;99.90
3923;DHT22;1976;51.694;6.256;2022-08-03T04:59:14;19.00;99.90
3923;DHT22;1976;51.694;6.256;2022-08-03T05:01:42;19.10;99.90
3923;DHT22;1976;51.694;6.256;2022-08-03T05:04:08;19.10;99.90
3923;DHT22;1976;51.694;6.256;2022-08-03T05:06:33;19.00;99.90
3923;DHT22;1976;51.694;6.256;2022-08-03T05:08:59;19.10;99.90
3923;DHT22;1976;51.694;6.256;2022-08-03T05:11:24;19.10;99.90
3923;DHT22;1976;51.694;6.256;2022-08-03T05:13:50;19.20;99.90
3923;DHT22;1976;51.694;6.256;2022-08-03T05:16:16;19.30;99.90
3923;DHT22;1976;51.694;6.256;2022-08-03T05:18:42;19.30;99.90
3923;DHT22;1976;51.694;6.256;2022-08-03T05:21:09;19.30;99.90
3923;DHT22;1976;51.694;6.256;2022-08-03T05:26:02;19.30;99.90
3923;DHT22;1976;51.694;6.256;2022-08-03T05:28:28;19.40;99.90
3923;DHT22;1976;51.694;6.256;2022-08-03T05:30:54;19.40;99.90
3923;DHT22;1976;51.694;6.256;2022-08-03T05:33:19;19.50;99.90
3923;DHT22;1976;51.694;6.256;2022-08-03T05:35:45;19.60;99.90
3923;DHT22;1976;51.694;6.256;2022-08-03T05:38:11;19.70;99.90
3923;DHT22;1976;51.694;6.256;2022-08-03T05:40:36;19.80;99.90
3923;DHT22;1976;51.694;6.256;2022-08-03T05:43:02;19.90;99.90
3923;DHT22;1976;51.694;6.256;2022-08-03T05:45:28;20.00;99.90
3923;DHT22;1976;51.694;6.256;2022-08-03T05:47:53;20.10;99.90
3923;DHT22;1976;51.694;6.256;2022-08-03T05:50:19;20.20;99.90
3923;DHT22;1976;51.694;6.256;2022-08-03T05:52:45;20.20;99.90
3923;DHT22;1976;51.694;6.256;2022-08-03T05:55:12;20.30;99.90
3923;DHT22;1976;51.694;6.256;2022-08-03T05:57:38;20.50;99.90
3923;DHT22;1976;51.694;6.256;2022-08-03T06:00:09;20.70;99.90
3923;DHT22;1976;51.694;6.256;2022-08-03T06:02:35;20.80;99.90
3923;DHT22;1976;51.694;6.256;2022-08-03T06:05:01;20.80;99.90
3923;DHT22;1976;51.694;6.256;2022-08-03T06:09:53;21.10;99.90
3923;DHT22;1976;51.694;6.256;2022-08-03T06:14:45;21.40;99.90
3923;DHT22;1976;51.694;6.256;2022-08-03T06:17:11;21.50;99.90
3923;DHT22;1976;51.694;6.256;2022-08-03T06:19:36;21.50;99.90
3923;DHT22;1976;51.694;6.256;2022-08-03T06:22:02;21.60;99.90
3923;DHT22;1976;51.694;6.256;2022-08-03T06:24:28;21.80;99.90
3923;DHT22;1976;51.694;6.256;2022-08-03T06:26:53;21.80;99.90
3923;DHT22;1976;51.694;6.256;2022-08-03T06:29:19;21.90;99.90
3923;DHT22;1976;51.694;6.256;2022-08-03T06:31:45;22.10;99.90
3923;DHT22;1976;51.694;6.256;2022-08-03T06:34:11;22.10;99.90
3923;DHT22;1976;51.694;6.256;2022-08-03T06:36:36;22.10;99.90
3923;DHT22;1976;51.694;6.256;2022-08-03T06:39:03;22.20;99.90
3923;DHT22;1976;51.694;6.256;2022-08-03T06:41:29;22.30;99.90
3923;DHT22;1976;51.694;6.256;2022-08-03T06:43:55;22.40;99.90
3923;DHT22;1976;51.694;6.256;2022-08-03T06:46:20;22.50;99.90
3923;DHT22;1976;51.694;6.256;2022-08-03T06:48:46;22.50;99.90
3923;DHT22;1976;51.694;6.256;2022-08-03T06:51:12;22.60;99.90
3923;DHT22;1976;51.694;6.256;2022-08-03T06:53:38;22.60;99.90
3923;DHT22;1976;51.694;6.256;2022-08-03T06:56:04;22.80;99.90
3923;DHT22;1976;51.694;6.256;2022-08-03T06:58:30;22.90;99.90
3923;DHT22;1976;51.694;6.256;2022-08-03T07:00:56;22.90;99.90
3923;DHT22;1976;51.694;6.256;2022-08-03T07:03:22;23.10;99.90
3923;DHT22;1976;51.694;6.256;2022-08-03T07:05:48;23.10;99.90
3923;DHT22;1976;51.694;6.256;2022-08-03T07:08:14;23.10;99.90
3923;DHT22;1976;51.694;6.256;2022-08-03T07:10:40;23.20;99.90
3923;DHT22;1976;51.694;6.256;2022-08-03T07:13:06;23.30;99.90
3923;DHT22;1976;51.694;6.256;2022-08-03T07:15:32;23.30;99.90
3923;DHT22;1976;51.694;6.256;2022-08-03T07:17:58;23.40;99.90
3923;DHT22;1976;51.694;6.256;2022-08-03T07:20:24;23.40;99.90
3923;DHT22;1976;51.694;6.256;2022-08-03T07:22:50;23.50;99.90
3923;DHT22;1976;51.694;6.256;2022-08-03T07:25:15;23.50;99.90
3923;DHT22;1976;51.694;6.256;2022-08-03T07:27:45;23.70;99.90
3923;DHT22;1976;51.694;6.256;2022-08-03T07:30:12;23.70;99.90
3923;DHT22;1976;51.694;6.256;2022-08-03T07:32:38;23.80;99.90
3923;DHT22;1976;51.694;6.256;2022-08-03T07:35:05;23.80;99.90
3923;DHT22;1976;51.694;6.256;2022-08-03T07:37:30;23.90;99.90
3923;DHT22;1976;51.694;6.256;2022-08-03T07:39:58;24.00;99.90
3923;DHT22;1976;51.694;6.256;2022-08-03T07:42:24;24.20;99.90
3923;DHT22;1976;51.694;6.256;2022-08-03T07:44:50;24.20;99.90
3923;DHT22;1976;51.694;6.256;2022-08-03T07:47:20;24.30;99.90
3923;DHT22;1976;51.694;6.256;2022-08-03T07:49:47;24.40;99.90
3923;DHT22;1976;51.694;6.256;2022-08-03T07:52:13;24.50;99.90
3923;DHT22;1976;51.694;6.256;2022-08-03T07:54:57;24.70;99.90
3923;DHT22;1976;51.694;6.256;2022-08-03T07:57:23;24.60;99.90
3923;DHT22;1976;51.694;6.256;2022-08-03T07:59:48;24.70;99.90
3923;DHT22;1976;51.694;6.256;2022-08-03T08:02:14;24.80;99.90
3923;DHT22;1976;51.694;6.256;2022-08-03T08:04:40;24.90;99.90
3923;DHT22;1976;51.694;6.256;2022-08-03T08:07:06;24.90;99.90
3923;DHT22;1976;51.694;6.256;2022-08-03T08:09:32;25.00;99.90
3923;DHT22;1976;51.694;6.256;2022-08-03T08:11:58;25.10;99.90
3923;DHT22;1976;51.694;6.256;2022-08-03T08:14:24;25.00;99.90
3923;DHT22;1976;51.694;6.256;2022-08-03T08:16:50;25.00;99.90
3923;DHT22;1976;51.694;6.256;2022-08-03T08:19:16;25.10;99.90
3923;DHT22;1976;51.694;6.256;2022-08-03T08:21:42;25.10;99.90
3923;DHT22;1976;51.694;6.256;2022-08-03T08:24:08;25.20;99.90
3923;DHT22;1976;51.694;6.256;2022-08-03T08:26:35;25.30;99.90
3923;DHT22;1976;51.694;6.256;2022-08-03T08:29:00;25.40;99.90
3923;DHT22;1976;51.694;6.256;2022-08-03T08:31:26;25.30;99.90
3923;DHT22;1976;51.694;6.256;2022-08-03T08:33:52;25.40;99.90
3923;DHT22;1976;51.694;6.256;2022-08-03T08:36:17;25.40;99.90
3923;DHT22;1976;51.694;6.256;2022-08-03T08:38:43;25.30;99.90
3923;DHT22;1976;51.694;6.256;2022-08-03T08:41:13;25.50;99.90
3923;DHT22;1976;51.694;6.256;2022-08-03T08:43:39;25.90;99.90
3923;DHT22;1976;51.694;6.256;2022-08-03T08:46:07;27.20;98.70
3923;DHT22;1976;51.694;6.256;2022-08-03T08:48:36;28.20;98.10
3923;DHT22;1976;51.694;6.256;2022-08-03T08:51:04;29.20;95.60
3923;DHT22;1976;51.694;6.256;2022-08-03T08:53:35;29.60;94.20
3923;DHT22;1976;51.694;6.256;2022-08-03T08:56:01;29.90;93.40
3923;DHT22;1976;51.694;6.256;2022-08-03T08:58:30;29.90;94.10
3923;DHT22;1976;51.694;6.256;2022-08-03T09:00:59;29.80;93.70
3923;DHT22;1976;51.694;6.256;2022-08-03T09:03:25;29.60;93.70
3923;DHT22;1976;51.694;6.256;2022-08-03T09:05:51;29.60;93.80
3923;DHT22;1976;51.694;6.256;2022-08-03T09:08:17;29.40;94.20
3923;DHT22;1976;51.694;6.256;2022-08-03T09:10:44;29.30;95.00
3923;DHT22;1976;51.694;6.256;2022-08-03T09:15:35;29.40;94.80
3923;DHT22;1976;51.694;6.256;2022-08-03T09:18:03;29.40;94.80
3923;DHT22;1976;51.694;6.256;2022-08-03T09:20:32;29.70;94.50
3923;DHT22;1976;51.694;6.256;2022-08-03T09:23:06;30.00;93.90
3923;DHT22;1976;51.694;6.256;2022-08-03T09:25:39;30.50;93.30
3923;DHT22;1976;51.694;6.256;2022-08-03T09:30:33;31.10;90.50
3923;DHT22;1976;51.694;6.256;2022-08-03T09:33:10;31.00;91.00
3923;DHT22;1976;51.694;6.256;2022-08-03T09:35:44;30.90;91.30
3923;DHT22;1976;51.694;6.256;2022-08-03T09:40:37;31.40;91.20
3923;DHT22;1976;51.694;6.256;2022-08-03T09:43:03;31.90;90.00
3923;DHT22;1976;51.694;6.256;2022-08-03T09:45:31;32.60;89.80
3923;DHT22;1976;51.694;6.256;2022-08-03T09:50:24;33.30;86.90
3923;DHT22;1976;51.694;6.256;2022-08-03T09:52:50;33.40;87.20
3923;DHT22;1976;51.694;6.256;2022-08-03T09:55:16;33.60;84.60
3923;DHT22;1976;51.694;6.256;2022-08-03T09:57:44;34.20;84.50
3923;DHT22;1976;51.694;6.256;2022-08-03T10:00:14;34.60;84.00
3923;DHT22;1976;51.694;6.256;2022-08-03T10:02:42;35.70;81.20
3923;DHT22;1976;51.694;6.256;2022-08-03T10:05:11;35.70;81.30
3923;DHT22;1976;51.694;6.256;2022-08-03T10:07:45;35.80;75.60
3923;DHT22;1976;51.694;6.256;2022-08-03T10:10:11;35.60;74.90
3923;DHT22;1976;51.694;6.256;2022-08-03T10:12:37;35.20;74.80
3923;DHT22;1976;51.694;6.256;2022-08-03T10:15:05;35.90;75.80
3923;DHT22;1976;51.694;6.256;2022-08-03T10:17:31;36.70;74.40
3923;DHT22;1976;51.694;6.256;2022-08-03T10:19:56;37.40;73.80
3923;DHT22;1976;51.694;6.256;2022-08-03T10:22:31;37.70;67.30
3923;DHT22;1976;51.694;6.256;2022-08-03T10:25:03;37.60;69.30
3923;DHT22;1976;51.694;6.256;2022-08-03T10:27:33;37.20;68.70
3923;DHT22;1976;51.694;6.256;2022-08-03T10:30:02;37.00;68.70
3923;DHT22;1976;51.694;6.256;2022-08-03T10:35:07;37.50;69.20
3923;DHT22;1976;51.694;6.256;2022-08-03T10:37:39;37.60;65.80
3923;DHT22;1976;51.694;6.256;2022-08-03T10:40:07;38.00;66.80
3923;DHT22;1976;51.694;6.256;2022-08-03T10:42:34;39.30;65.90
3923;DHT22;1976;51.694;6.256;2022-08-03T10:45:08;40.20;63.10
3923;DHT22;1976;51.694;6.256;2022-08-03T10:47:38;41.20;57.70
3923;DHT22;1976;51.694;6.256;2022-08-03T10:50:05;41.30;57.90
3923;DHT22;1976;51.694;6.256;2022-08-03T10:52:31;41.40;59.00
3923;DHT22;1976;51.694;6.256;2022-08-03T10:54:57;41.80;56.40
3923;DHT22;1976;51.694;6.256;2022-08-03T10:57:50;42.40;54.50
3923;DHT22;1976;51.694;6.256;2022-08-03T11:00:22;42.10;53.10
3923;DHT22;1976;51.694;6.256;2022-08-03T11:05:31;41.20;55.30
3923;DHT22;1976;51.694;6.256;2022-08-03T11:08:18;40.60;53.00
3923;DHT22;1976;51.694;6.256;2022-08-03T11:10:45;40.30;54.40
3923;DHT22;1976;51.694;6.256;2022-08-03T11:13:14;40.60;54.00
3923;DHT22;1976;51.694;6.256;2022-08-03T11:15:43;41.20;53.80
3923;DHT22;1976;51.694;6.256;2022-08-03T11:18:10;41.20;52.80
3923;DHT22;1976;51.694;6.256;2022-08-03T11:20:55;41.30;54.60
3923;DHT22;1976;51.694;6.256;2022-08-03T11:23:59;41.70;52.70
3923;DHT22;1976;51.694;6.256;2022-08-03T11:26:24;41.40;52.90
3923;DHT22;1976;51.694;6.256;2022-08-03T11:28:50;41.80;53.40
3923;DHT22;1976;51.694;6.256;2022-08-03T11:39:42;41.50;50.70
3923;DHT22;1976;51.694;6.256;2022-08-03T11:44:49;42.60;51.40
3923;DHT22;1976;51.694;6.256;2022-08-03T11:47:16;43.10;49.70
3923;DHT22;1976;51.694;6.256;2022-08-03T11:49:46;43.70;49.00
3923;DHT22;1976;51.694;6.256;2022-08-03T11:52:12;44.10;47.70
3923;DHT22;1976;51.694;6.256;2022-08-03T11:54:38;44.30;47.40
3923;DHT22;1976;51.694;6.256;2022-08-03T11:57:04;44.20;47.60
3923;DHT22;1976;51.694;6.256;2022-08-03T11:59:34;43.00;45.50
3923;DHT22;1976;51.694;6.256;2022-08-03T12:02:08;42.40;48.40
3923;DHT22;1976;51.694;6.256;2022-08-03T12:04:57;42.40;46.50
3923;DHT22;1976;51.694;6.256;2022-08-03T12:07:25;41.90;49.20
3923;DHT22;1976;51.694;6.256;2022-08-03T12:10:21;42.30;48.40
3923;DHT22;1976;51.694;6.256;2022-08-03T12:12:57;42.90;49.50
3923;DHT22;1976;51.694;6.256;2022-08-03T12:15:30;42.70;46.40
3923;DHT22;1976;51.694;6.256;2022-08-03T12:17:58;42.30;46.20
3923;DHT22;1976;51.694;6.256;2022-08-03T12:20:30;42.60;46.10
3923;DHT22;1976;51.694;6.256;2022-08-03T12:25:28;43.70;46.30
3923;DHT22;1976;51.694;6.256;2022-08-03T12:28:09;44.00;45.70
3923;DHT22;1976;51.694;6.256;2022-08-03T12:30:37;44.40;47.30
3923;DHT22;1976;51.694;6.256;2022-08-03T12:33:13;44.30;47.60
3923;DHT22;1976;51.694;6.256;2022-08-03T12:35:39;44.60;44.00
3923;DHT22;1976;51.694;6.256;2022-08-03T12:38:05;44.90;43.20
3923;DHT22;1976;51.694;6.256;2022-08-03T12:40:30;45.00;42.40
3923;DHT22;1976;51.694;6.256;2022-08-03T12:42:56;45.00;42.10
3923;DHT22;1976;51.694;6.256;2022-08-03T12:45:27;45.60;44.00
3923;DHT22;1976;51.694;6.256;2022-08-03T12:47:58;45.70;40.90
3923;DHT22;1976;51.694;6.256;2022-08-03T12:50:29;45.60;41.80
3923;DHT22;1976;51.694;6.256;2022-08-03T12:52:56;45.80;42.10
3923;DHT22;1976;51.694;6.256;2022-08-03T12:55:23;46.80;40.70
3923;DHT22;1976;51.694;6.256;2022-08-03T12:57:49;46.90;39.60
3923;DHT22;1976;51.694;6.256;2022-08-03T13:00:17;46.90;41.20
3923;DHT22;1976;51.694;6.256;2022-08-03T13:02:43;47.10;38.40
3923;DHT22;1976;51.694;6.256;2022-08-03T13:05:10;47.30;38.00
3923;DHT22;1976;51.694;6.256;2022-08-03T13:07:43;47.40;39.30
3923;DHT22;1976;51.694;6.256;2022-08-03T13:10:10;47.40;40.00
3923;DHT22;1976;51.694;6.256;2022-08-03T13:12:47;47.10;38.00
3923;DHT22;1976;51.694;6.256;2022-08-03T13:15:12;47.40;38.10
3923;DHT22;1976;51.694;6.256;2022-08-03T13:17:38;47.40;38.80
3923;DHT22;1976;51.694;6.256;2022-08-03T13:20:05;48.10;37.60
3923;DHT22;1976;51.694;6.256;2022-08-03T13:22:30;49.00;36.60
3923;DHT22;1976;51.694;6.256;2022-08-03T13:24:59;49.10;37.80
3923;DHT22;1976;51.694;6.256;2022-08-03T13:27:27;48.60;36.90
3923;DHT22;1976;51.694;6.256;2022-08-03T13:29:53;47.90;36.20
3923;DHT22;1976;51.694;6.256;2022-08-03T13:32:20;47.90;36.60
3923;DHT22;1976;51.694;6.256;2022-08-03T13:34:46;47.90;36.60
3923;DHT22;1976;51.694;6.256;2022-08-03T13:37:12;48.30;36.50
3923;DHT22;1976;51.694;6.256;2022-08-03T13:39:38;49.20;36.80
3923;DHT22;1976;51.694;6.256;2022-08-03T13:42:04;49.20;35.80
3923;DHT22;1976;51.694;6.256;2022-08-03T13:44:33;48.80;35.00
3923;DHT22;1976;51.694;6.256;2022-08-03T13:47:02;48.50;35.50
3923;DHT22;1976;51.694;6.256;2022-08-03T13:49:27;48.10;36.10
3923;DHT22;1976;51.694;6.256;2022-08-03T13:51:54;47.60;36.60
3923;DHT22;1976;51.694;6.256;2022-08-03T13:54:20;46.90;36.00
3923;DHT22;1976;51.694;6.256;2022-08-03T13:56:46;46.60;37.70
3923;DHT22;1976;51.694;6.256;2022-08-03T13:59:25;46.50;36.80
3923;DHT22;1976;51.694;6.256;2022-08-03T14:01:52;46.50;37.10
3923;DHT22;1976;51.694;6.256;2022-08-03T14:04:18;46.30;38.30
3923;DHT22;1976;51.694;6.256;2022-08-03T14:06:44;46.40;37.60
3923;DHT22;1976;51.694;6.256;2022-08-03T14:09:13;46.20;37.80
3923;DHT22;1976;51.694;6.256;2022-08-03T14:11:40;45.40;36.90
3923;DHT22;1976;51.694;6.256;2022-08-03T14:14:06;44.90;37.50
3923;DHT22;1976;51.694;6.256;2022-08-03T14:16:31;43.80;39.40
3923;DHT22;1976;51.694;6.256;2022-08-03T14:18:57;43.40;38.30
3923;DHT22;1976;51.694;6.256;2022-08-03T14:21:22;43.00;40.70
3923;DHT22;1976;51.694;6.256;2022-08-03T14:23:48;43.70;39.60
3923;DHT22;1976;51.694;6.256;2022-08-03T14:26:14;44.80;38.80
3923;DHT22;1976;51.694;6.256;2022-08-03T14:28:40;45.70;38.60
3923;DHT22;1976;51.694;6.256;2022-08-03T14:31:06;46.00;38.50
3923;DHT22;1976;51.694;6.256;2022-08-03T14:33:32;45.70;38.50
3923;DHT22;1976;51.694;6.256;2022-08-03T14:35:57;44.90;36.40
3923;DHT22;1976;51.694;6.256;2022-08-03T14:38:23;44.10;37.90
3923;DHT22;1976;51.694;6.256;2022-08-03T14:40:49;43.40;38.50
3923;DHT22;1976;51.694;6.256;2022-08-03T14:43:15;42.70;38.50
3923;DHT22;1976;51.694;6.256;2022-08-03T14:45:48;42.50;40.50
3923;DHT22;1976;51.694;6.256;2022-08-03T14:48:17;42.80;39.90
3923;DHT22;1976;51.694;6.256;2022-08-03T14:50:42;43.30;38.50
3923;DHT22;1976;51.694;6.256;2022-08-03T14:53:08;43.60;38.60
3923;DHT22;1976;51.694;6.256;2022-08-03T14:55:34;44.00;38.70
3923;DHT22;1976;51.694;6.256;2022-08-03T14:57:59;44.70;38.30
3923;DHT22;1976;51.694;6.256;2022-08-03T15:00:34;45.10;37.60
3923;DHT22;1976;51.694;6.256;2022-08-03T15:03:00;45.20;37.30
3923;DHT22;1976;51.694;6.256;2022-08-03T15:05:26;45.40;37.50
3923;DHT22;1976;51.694;6.256;2022-08-03T15:10:17;46.20;36.50
3923;DHT22;1976;51.694;6.256;2022-08-03T15:12:43;46.50;36.80
3923;DHT22;1976;51.694;6.256;2022-08-03T15:15:09;46.50;37.30
3923;DHT22;1976;51.694;6.256;2022-08-03T15:17:35;46.50;36.70
3923;DHT22;1976;51.694;6.256;2022-08-03T15:20:00;46.40;35.90
3923;DHT22;1976;51.694;6.256;2022-08-03T15:22:26;45.30;35.70
3923;DHT22;1976;51.694;6.256;2022-08-03T15:24:52;44.10;37.60
3923;DHT22;1976;51.694;6.256;2022-08-03T15:27:18;43.20;39.00
3923;DHT22;1976;51.694;6.256;2022-08-03T15:29:43;42.70;38.60
3923;DHT22;1976;51.694;6.256;2022-08-03T15:32:09;42.30;38.90
3923;DHT22;1976;51.694;6.256;2022-08-03T15:34:35;42.20;39.70
3923;DHT22;1976;51.694;6.256;2022-08-03T15:37:00;42.30;39.30
3923;DHT22;1976;51.694;6.256;2022-08-03T15:39:26;42.50;39.60
3923;DHT22;1976;51.694;6.256;2022-08-03T15:41:51;42.90;39.70
3923;DHT22;1976;51.694;6.256;2022-08-03T15:44:18;43.20;39.30
3923;DHT22;1976;51.694;6.256;2022-08-03T15:46:44;43.30;39.20
3923;DHT22;1976;51.694;6.256;2022-08-03T15:49:10;42.90;38.60
3923;DHT22;1976;51.694;6.256;2022-08-03T15:51:35;42.50;39.80
3923;DHT22;1976;51.694;6.256;2022-08-03T15:54:03;41.80;39.30
3923;DHT22;1976;51.694;6.256;2022-08-03T15:56:28;41.30;39.90
3923;DHT22;1976;51.694;6.256;2022-08-03T15:58:54;40.90;39.70
3923;DHT22;1976;51.694;6.256;2022-08-03T16:01:22;40.10;41.30
3923;DHT22;1976;51.694;6.256;2022-08-03T16:06:15;39.10;43.70
3923;DHT22;1976;51.694;6.256;2022-08-03T16:08:41;38.90;43.90
3923;DHT22;1976;51.694;6.256;2022-08-03T16:11:07;38.50;44.50
3923;DHT22;1976;51.694;6.256;2022-08-03T16:13:33;38.30;44.50
3923;DHT22;1976;51.694;6.256;2022-08-03T16:15:58;38.30;46.50
3923;DHT22;1976;51.694;6.256;2022-08-03T16:18:24;38.20;47.30
3923;DHT22;1976;51.694;6.256;2022-08-03T16:20:50;37.90;46.30
3923;DHT22;1976;51.694;6.256;2022-08-03T16:23:16;37.70;46.90
3923;DHT22;1976;51.694;6.256;2022-08-03T16:25:45;37.50;46.30
3923;DHT22;1976;51.694;6.256;2022-08-03T16:28:11;37.40;47.90
3923;DHT22;1976;51.694;6.256;2022-08-03T16:30:37;37.50;47.10
3923;DHT22;1976;51.694;6.256;2022-08-03T16:33:03;37.70;47.20
3923;DHT22;1976;51.694;6.256;2022-08-03T16:35:29;37.90;48.20
3923;DHT22;1976;51.694;6.256;2022-08-03T16:37:55;38.00;48.00
3923;DHT22;1976;51.694;6.256;2022-08-03T16:40:21;38.00;46.20
3923;DHT22;1976;51.694;6.256;2022-08-03T16:42:46;37.80;45.90
3923;DHT22;1976;51.694;6.256;2022-08-03T16:45:12;37.80;46.40
3923;DHT22;1976;51.694;6.256;2022-08-03T16:47:38;37.90;45.20
3923;DHT22;1976;51.694;6.256;2022-08-03T16:50:04;37.80;45.70
3923;DHT22;1976;51.694;6.256;2022-08-03T16:52:30;37.70;46.90
3923;DHT22;1976;51.694;6.256;2022-08-03T16:54:57;37.80;46.10
3923;DHT22;1976;51.694;6.256;2022-08-03T16:57:24;38.00;46.40
3923;DHT22;1976;51.694;6.256;2022-08-03T16:59:50;38.10;45.80
3923;DHT22;1976;51.694;6.256;2022-08-03T17:02:24;38.40;46.10
3923;DHT22;1976;51.694;6.256;2022-08-03T17:04:51;38.60;46.60
3923;DHT22;1976;51.694;6.256;2022-08-03T17:07:18;38.60;45.70
3923;DHT22;1976;51.694;6.256;2022-08-03T17:09:44;38.70;47.30
3923;DHT22;1976;51.694;6.256;2022-08-03T17:12:10;38.70;47.20